Time;durP1;ratioP1;P1;durP2;ratioP2;P2;SDS_P1;SDS_P2;PMS_P1;PMS_P2;Temp;Humidity;BMP_temperature;BMP_pressure;BME280_temperature;BME280_humidity;BME280_pressure;Samples;Min_cycle;Max_cycle;Signal;HPM_P1;HPM_P2
2022/10/16 00:01:23;;;;;;;15.30;9.15;;;;;;;7.06;100.00;97667.16;5043487;28;20132;-58
2022/10/16 00:03:50;;;;;;;13.48;9.13;;;;;;;7.11;100.00;97672.50;5043699;28;20538;-60
2022/10/16 00:06:18;;;;;;;13.75;8.95;;;;;;;7.09;100.00;97675.56;5043949;28;20081;-57
2022/10/16 00:08:46;;;;;;;12.02;7.75;;;;;;;6.98;100.00;97682.59;5044183;28;20052;-58
2022/10/16 00:11:21;;;;;;;10.70;8.02;;;;;;;7.02;100.00;97675.28;5042464;28;20052;-58
2022/10/16 00:13:49;;;;;;;12.27;8.43;;;;;;;7.01;100.00;97672.84;5043683;28;20088;-58
2022/10/16 00:16:16;;;;;;;14.20;8.20;;;;;;;7.07;100.00;97685.28;5041964;28;20145;-57
2022/10/16 00:18:43;;;;;;;11.30;7.63;;;;;;;6.25;100.00;97583.16;5043849;28;20107;-60
2022/10/16 00:21:22;;;;;;;12.43;7.95;;;;;;;7.01;100.00;97695.72;5043824;28;20083;-57
2022/10/16 00:24:09;;;;;;;16.83;7.93;;;;;;;6.96;100.00;97681.31;5043496;28;20077;-58
2022/10/16 00:26:37;;;;;;;14.10;7.68;;;;;;;6.73;100.00;97638.66;5042343;28;20547;-57
2022/10/16 00:29:05;;;;;;;11.60;7.45;;;;;;;7.00;100.00;97698.78;5044143;28;20126;-57
2022/10/16 00:31:32;;;;;;;11.95;7.10;;;;;;;7.00;100.00;97699.59;5043340;28;20152;-57
2022/10/16 00:34:00;;;;;;;12.85;7.53;;;;;;;6.40;100.00;97597.22;5047137;28;20560;-57
2022/10/16 00:36:26;;;;;;;15.52;7.47;;;;;;;7.07;100.00;97721.91;5047051;28;20057;-57
2022/10/16 00:38:59;;;;;;;11.95;6.65;;;;;;;6.71;99.79;97660.19;5045658;28;20156;-57
2022/10/16 00:41:26;;;;;;;12.88;7.72;;;;;;;6.89;98.82;97698.34;5045735;28;20103;-57
2022/10/16 00:43:58;;;;;;;12.20;7.28;;;;;;;6.80;98.35;97716.84;5045456;28;20146;-57
2022/10/16 00:46:27;;;;;;;14.52;7.57;;;;;;;6.69;99.00;97718.34;5047221;28;20076;-57
2022/10/16 00:49:15;;;;;;;14.13;6.90;;;;;;;6.55;99.12;97715.00;5053452;28;20507;-57
2022/10/16 00:51:45;;;;;;;14.50;8.13;;;;;;;6.74;97.12;97745.69;5066679;28;20049;-57
2022/10/16 00:54:27;;;;;;;15.65;8.23;;;;;;;5.84;97.66;97622.25;5066630;28;20087;-57
2022/10/16 00:56:56;;;;;;;15.95;8.80;;;;;;;6.52;99.16;97748.66;5066636;28;20467;-57
2022/10/16 00:59:27;;;;;;;14.48;8.23;;;;;;;6.56;98.70;97738.59;5065194;28;20121;-58
2022/10/16 01:01:54;;;;;;;17.45;8.35;;;;;;;6.51;99.29;97736.06;5065413;28;20053;-57
2022/10/16 01:04:22;;;;;;;16.02;8.70;;;;;;;5.96;99.68;97663.63;5066607;28;20113;-58
2022/10/16 01:07:02;;;;;;;13.68;8.90;;;;;;;6.51;100.00;97746.25;5066355;28;20052;-57
2022/10/16 01:09:52;;;;;;;14.45;8.95;;;;;;;6.44;100.00;97741.22;5066479;28;20062;-56
2022/10/16 01:12:58;;;;;;;13.85;8.68;;;;;;;6.52;100.00;97743.16;5066709;28;20216;-57
2022/10/16 01:15:37;;;;;;;12.50;8.25;;;;;;;6.33;100.00;97717.94;5063816;28;20151;-59
2022/10/16 01:18:26;;;;;;;11.68;7.72;;;;;;;6.45;100.00;97731.84;5066394;28;20060;-56
2022/10/16 01:21:24;;;;;;;13.45;7.80;;;;;;;6.36;100.00;97732.97;5066171;28;20221;-57
2022/10/16 01:24:08;;;;;;;13.20;7.75;;;;;;;6.35;100.00;97731.38;5064739;28;20076;-56
2022/10/16 01:26:57;;;;;;;13.85;8.25;;;;;;;6.11;100.00;97707.13;5065728;28;20095;-56
2022/10/16 01:29:29;;;;;;;12.90;8.57;;;;;;;6.44;100.00;97743.97;5064871;28;20135;-56
2022/10/16 01:32:20;;;;;;;13.55;8.55;;;;;;;6.39;100.00;97738.66;5065842;28;20114;-55
2022/10/16 01:34:57;;;;;;;13.85;8.23;;;;;;;5.86;100.00;97680.47;5065998;28;20153;-58
2022/10/16 01:37:36;;;;;;;11.60;8.18;;;;;;;6.37;100.00;97740.91;5066053;28;20075;-57
2022/10/16 01:40:09;;;;;;;13.95;7.68;;;;;;;6.37;100.00;97740.91;5065614;28;20094;-57
2022/10/16 01:42:42;;;;;;;12.93;7.65;;;;;;;5.99;100.00;97690.50;5064771;28;20087;-55
2022/10/16 01:45:13;;;;;;;9.98;7.43;;;;;;;5.86;100.00;97669.47;5064198;28;20475;-56
2022/10/16 01:47:40;;;;;;;12.90;7.90;;;;;;;6.31;100.00;97742.22;5065524;28;20053;-57
2022/10/16 01:50:08;;;;;;;15.85;8.35;;;;;;;6.14;100.00;97754.06;5049329;28;20060;-58
2022/10/16 01:52:38;;;;;;;15.80;8.68;;;;;;;5.98;100.00;97727.38;5045329;28;20135;-57
2022/10/16 01:55:08;;;;;;;12.50;8.30;;;;;;;6.00;100.00;97736.91;5045584;28;20095;-57
2022/10/16 01:57:40;;;;;;;16.85;8.45;;;;;;;6.22;100.00;97751.63;5043885;28;20500;-56
2022/10/16 02:00:10;;;;;;;12.48;8.07;;;;;;;6.04;100.00;97715.06;5045376;28;20530;-57
2022/10/16 02:02:44;;;;;;;15.38;7.57;;;;;;;5.93;100.00;97703.59;5045410;28;20092;-57
2022/10/16 02:05:16;;;;;;;14.35;8.32;;;;;;;6.29;100.00;97755.50;5045445;28;20132;-57
2022/10/16 02:07:43;;;;;;;11.57;8.30;;;;;;;6.11;100.00;97740.97;5045442;28;20052;-57
2022/10/16 02:10:10;;;;;;;14.65;7.68;;;;;;;5.93;100.00;97719.28;5043973;28;20045;-58
2022/10/16 02:12:40;;;;;;;14.23;7.57;;;;;;;6.23;100.00;97751.28;5043779;28;20095;-56
2022/10/16 02:15:07;;;;;;;13.40;8.00;;;;;;;6.21;100.00;97753.56;5045217;28;20190;-56
2022/10/16 02:17:33;;;;;;;14.98;8.18;;;;;;;6.26;100.00;97772.63;5043860;28;20147;-56
2022/10/16 02:20:01;;;;;;;13.65;8.15;;;;;;;5.90;100.00;97744.66;5045005;28;20136;-57
2022/10/16 02:22:36;;;;;;;12.38;8.23;;;;;;;6.11;100.00;97762.16;5043647;28;20135;-57
2022/10/16 02:25:09;;;;;;;13.68;9.00;;;;;;;5.77;100.00;97705.19;5044903;28;20084;-57
2022/10/16 02:27:54;;;;;;;13.60;8.70;;;;;;;5.39;100.00;97631.97;5044937;28;20053;-57
2022/10/16 02:30:21;;;;;;;20.38;10.25;;;;;;;6.34;100.00;97763.56;5044583;28;20098;-57
2022/10/16 02:32:49;;;;;;;18.95;9.80;;;;;;;6.33;100.00;97761.16;5043675;28;20052;-59
2022/10/16 02:35:18;;;;;;;18.80;9.35;;;;;;;5.75;100.00;97668.16;5044606;28;20110;-57
2022/10/16 02:37:46;;;;;;;14.40;8.60;;;;;;;6.24;100.00;97769.44;5044575;28;20563;-56
2022/10/16 02:40:14;;;;;;;12.63;8.00;;;;;;;5.64;100.00;97678.66;5043305;28;20127;-59
2022/10/16 02:42:44;;;;;;;12.20;7.78;;;;;;;6.21;100.00;97764.56;5044430;28;20490;-59
2022/10/16 02:45:11;;;;;;;14.05;7.65;;;;;;;5.10;100.00;97596.06;5044760;28;20049;-56
2022/10/16 02:47:38;;;;;;;19.20;9.60;;;;;;;6.07;100.00;97767.47;5044678;28;20506;-57
2022/10/16 02:50:05;;;;;;;20.27;9.73;;;;;;;5.70;99.09;97731.53;5060445;28;20189;-56
2022/10/16 02:52:31;;;;;;;28.48;10.98;;;;;;;5.86;100.00;97771.19;5064763;28;20490;-57
2022/10/16 02:54:58;;;;;;;17.80;10.20;;;;;;;5.51;100.00;97722.78;5064280;28;20070;-56
2022/10/16 02:57:25;;;;;;;19.77;10.23;;;;;;;5.89;100.00;97778.78;5063160;28;20135;-56
2022/10/16 02:59:52;;;;;;;16.13;8.88;;;;;;;5.89;100.00;97778.78;5064664;28;20106;-56
2022/10/16 03:02:18;;;;;;;14.95;8.88;;;;;;;6.02;100.00;97794.34;5063093;28;20140;-58
2022/10/16 03:04:45;;;;;;;16.88;9.02;;;;;;;5.86;100.00;97801.44;5064432;28;20082;-55
2022/10/16 03:07:12;;;;;;;18.37;9.20;;;;;;;5.86;100.00;97795.94;4880377;28;5001923;-57
2022/10/16 03:09:38;;;;;;;16.58;10.02;;;;;;;5.92;100.00;97783.66;5064319;28;20101;-55
2022/10/16 03:12:05;;;;;;;14.90;8.80;;;;;;;5.83;100.00;97780.09;5064284;28;20084;-56
2022/10/16 03:14:32;;;;;;;17.02;9.32;;;;;;;5.90;100.00;97796.91;5063826;28;20135;-55
2022/10/16 03:16:58;;;;;;;13.35;8.48;;;;;;;5.92;100.00;97789.97;5063843;28;20109;-56
2022/10/16 03:19:25;;;;;;;18.73;10.40;;;;;;;6.02;100.00;97783.34;5062986;28;20123;-56
2022/10/16 03:21:51;;;;;;;15.63;9.90;;;;;;;5.73;100.00;97731.72;5063922;28;20052;-58
2022/10/16 03:24:18;;;;;;;13.18;8.82;;;;;;;5.08;100.00;97647.72;5064409;28;20151;-55
2022/10/16 03:26:45;;;;;;;13.68;8.70;;;;;;;5.63;100.00;97753.16;5064263;28;20083;-57
2022/10/16 03:29:11;;;;;;;14.60;8.77;;;;;;;5.27;100.00;97703.19;5062997;28;20135;-56
2022/10/16 03:31:38;;;;;;;14.82;9.68;;;;;;;4.31;100.00;97563.28;5062900;28;20053;-57
2022/10/16 03:34:05;;;;;;;16.25;10.55;;;;;;;5.86;100.00;97785.72;5064582;28;20126;-56
2022/10/16 03:36:31;;;;;;;13.55;9.05;;;;;;;5.44;100.00;97722.44;5062576;28;20060;-57
2022/10/16 03:38:58;;;;;;;18.58;10.75;;;;;;;5.98;100.00;97805.16;5045880;28;20082;-57
2022/10/16 03:41:25;;;;;;;14.07;8.40;;;;;;;5.81;100.00;97805.13;5064335;28;20045;-56
2022/10/16 03:43:51;;;;;;;21.45;9.68;;;;;;;5.42;100.00;97746.69;5064088;28;20518;-57
2022/10/16 03:46:18;;;;;;;17.17;9.77;;;;;;;5.73;100.00;97789.44;5063879;28;20529;-56
2022/10/16 03:48:45;;;;;;;15.48;8.82;;;;;;;5.52;100.00;97773.84;5060178;28;20076;-57
2022/10/16 03:51:11;;;;;;;20.33;9.48;;;;;;;5.79;100.00;97806.56;5044139;28;20309;-56
2022/10/16 03:53:38;;;;;;;13.57;8.10;;;;;;;5.71;100.00;97821.91;5044463;28;20111;-58
2022/10/16 03:56:05;;;;;;;16.98;8.68;;;;;;;5.66;100.00;97802.81;5042526;28;20586;-57
2022/10/16 03:58:32;;;;;;;13.15;8.27;;;;;;;5.67;100.00;97789.91;5042598;28;20057;-57
2022/10/16 04:00:58;;;;;;;15.38;9.35;;;;;;;5.79;100.00;97823.06;5042533;28;20122;-58
2022/10/16 04:03:25;;;;;;;16.40;10.30;;;;;;;5.60;100.00;97806.84;5042491;28;20049;-56
2022/10/16 04:05:52;;;;;;;18.40;9.38;;;;;;;5.29;100.00;97761.34;5042366;28;20110;-57
2022/10/16 04:08:18;;;;;;;20.17;10.30;;;;;;;5.63;100.00;97819.13;5047783;28;20496;-57
2022/10/16 04:10:45;;;;;;;14.00;9.68;;;;;;;5.18;100.00;97779.25;5047899;28;20149;-56
2022/10/16 04:13:12;;;;;;;20.50;9.57;;;;;;;5.42;100.00;97796.13;5046475;28;20123;-58
2022/10/16 04:15:39;;;;;;;14.40;9.55;;;;;;;5.27;100.00;97769.09;5047500;28;20132;-56
2022/10/16 04:18:06;;;;;;;21.25;13.10;;;;;;;5.64;100.00;97815.28;5046018;28;20456;-58
2022/10/16 04:20:33;;;;;;;22.42;14.45;;;;;;;5.59;100.00;97796.19;5047441;28;20057;-58
2022/10/16 04:23:00;;;;;;;18.48;10.63;;;;;;;4.96;100.00;97727.97;5047167;28;20136;-57
2022/10/16 04:25:27;;;;;;;22.70;13.55;;;;;;;4.62;100.00;97640.84;5047693;28;20524;-56
2022/10/16 04:27:54;;;;;;;18.08;9.43;;;;;;;5.20;100.00;97774.25;5045724;28;20080;-57
2022/10/16 04:30:21;;;;;;;15.45;9.68;;;;;;;5.31;100.00;97805.78;5047296;28;20103;-55
2022/10/16 04:32:52;;;;;;;17.23;9.20;;;;;;;5.63;100.00;97830.13;5046148;28;20132;-56
2022/10/16 04:35:20;;;;;;;17.88;10.93;;;;;;;5.55;100.00;97811.66;5047441;28;20053;-57
2022/10/16 04:37:47;;;;;;;15.20;10.00;;;;;;;5.68;100.00;97838.22;5047843;28;20085;-56
2022/10/16 04:40:14;;;;;;;20.30;11.10;;;;;;;5.51;100.00;97828.00;5046978;28;20061;-59
2022/10/16 04:42:41;;;;;;;16.95;9.27;;;;;;;5.19;100.00;97761.63;5046999;28;20147;-57
2022/10/16 04:45:08;;;;;;;19.20;10.48;;;;;;;5.58;100.00;97833.03;5047024;28;20049;-58
2022/10/16 04:47:40;;;;;;;17.20;10.90;;;;;;;5.33;100.00;97841.97;5047117;28;20053;-57
2022/10/16 04:50:08;;;;;;;16.42;9.82;;;;;;;5.51;100.00;97860.97;5061432;28;20088;-57
2022/10/16 04:52:34;;;;;;;19.15;10.82;;;;;;;5.64;100.00;97834.50;5067123;28;20084;-57
2022/10/16 04:55:02;;;;;;;23.77;11.50;;;;;;;5.68;100.00;97838.22;5066737;28;20053;-60
2022/10/16 04:57:29;;;;;;;20.90;13.32;;;;;;;5.63;100.00;97824.63;5066640;28;20155;-57
2022/10/16 04:59:56;;;;;;;21.35;14.60;;;;;;;5.81;100.00;97848.28;5066827;28;20141;-59
2022/10/16 05:02:23;;;;;;;20.05;12.95;;;;;;;5.87;100.00;97841.53;5065311;28;20147;-56
2022/10/16 05:04:50;;;;;;;24.40;11.30;;;;;;;5.36;100.00;97742.47;5066414;28;20133;-57
2022/10/16 05:07:16;;;;;;;17.00;9.73;;;;;;;6.00;100.00;97840.59;5066541;28;20087;-57
2022/10/16 05:09:43;;;;;;;37.17;19.65;;;;;;;6.04;100.00;97852.56;5066433;28;20056;-58
2022/10/16 05:12:09;;;;;;;48.45;22.45;;;;;;;5.70;100.00;97797.50;5064961;28;20126;-57
2022/10/16 05:14:36;;;;;;;24.08;14.00;;;;;;;6.15;100.00;97859.38;5066344;28;20096;-60
2022/10/16 05:17:03;;;;;;;26.35;14.25;;;;;;;6.26;100.00;97849.66;5066132;28;20827;-56
2022/10/16 05:19:30;;;;;;;13.63;8.45;;;;;;;6.30;100.00;97850.66;5066303;28;20080;-59
2022/10/16 05:21:56;;;;;;;20.08;11.52;;;;;;;6.07;100.00;97791.41;5066539;28;20201;-56
2022/10/16 05:24:23;;;;;;;16.20;10.50;;;;;;;6.21;100.00;97803.09;5065696;28;20083;-57
2022/10/16 05:26:51;;;;;;;22.27;12.75;;;;;;;6.65;100.00;97855.03;5066245;28;20487;-55
2022/10/16 05:29:17;;;;;;;26.95;17.67;;;;;;;6.71;98.41;97834.44;5064973;28;20061;-56
2022/10/16 05:31:44;;;;;;;41.50;21.77;;;;;;;6.34;96.99;97765.53;5066072;28;20092;-60
2022/10/16 05:34:11;;;;;;;31.60;18.92;;;;;;;7.08;94.74;97864.00;5064394;28;20663;-57
2022/10/16 05:36:38;;;;;;;26.27;15.00;;;;;;;6.43;94.64;97756.13;5066122;28;20053;-57
2022/10/16 05:39:04;;;;;;;27.88;14.50;;;;;;;6.86;93.71;97802.84;5064573;28;20522;-57
2022/10/16 05:41:31;;;;;;;21.60;12.15;;;;;;;7.17;93.06;97841.97;5065769;28;20127;-57
2022/10/16 05:43:58;;;;;;;30.10;16.08;;;;;;;7.46;92.82;97873.13;5063937;28;20065;-59
2022/10/16 05:46:24;;;;;;;16.05;10.30;;;;;;;7.54;93.81;97844.72;5064253;28;20102;-57
2022/10/16 05:48:53;;;;;;;12.23;7.55;;;;;;;7.59;94.47;97839.03;5061783;28;20103;-58
2022/10/16 05:51:19;;;;;;;14.60;7.72;;;;;;;6.58;95.46;97669.47;5045704;28;20519;-57
2022/10/16 05:53:46;;;;;;;12.38;7.85;;;;;;;7.97;94.79;97869.34;5046024;28;20060;-57
2022/10/16 05:56:13;;;;;;;11.75;7.38;;;;;;;8.15;95.18;97889.34;5045496;28;20138;-57
2022/10/16 05:58:40;;;;;;;20.60;8.85;;;;;;;7.89;95.30;97858.38;5045657;28;20158;-57
2022/10/16 06:01:13;;;;;;;16.17;8.55;;;;;;;8.19;95.29;97895.84;5043977;28;20593;-57
2022/10/16 06:03:40;;;;;;;14.48;7.25;;;;;;;8.35;95.16;97888.59;5045771;28;20053;-57
2022/10/16 06:06:18;;;;;;;17.17;9.25;;;;;;;8.57;95.11;97882.75;5045312;28;20084;-56
2022/10/16 06:08:46;;;;;;;13.95;8.73;;;;;;;8.79;94.41;97888.75;5045465;28;20106;-58
2022/10/16 06:11:16;;;;;;;20.25;9.77;;;;;;;8.89;93.71;97882.00;5045278;28;20052;-58
2022/10/16 06:13:45;;;;;;;20.42;9.60;;;;;;;9.05;93.58;97881.03;5044885;28;20221;-57
2022/10/16 06:16:12;;;;;;;16.45;8.57;;;;;;;9.34;92.36;97882.88;5045252;28;20052;-58
2022/10/16 06:18:39;;;;;;;19.02;10.93;;;;;;;9.65;91.78;97879.56;5045254;28;20141;-58
2022/10/16 06:21:17;;;;;;;22.10;11.77;;;;;;;9.37;90.68;97803.94;5044099;28;20152;-57
2022/10/16 06:23:45;;;;;;;12.73;7.78;;;;;;;10.09;88.67;97885.03;5044814;28;20088;-59
2022/10/16 06:26:16;;;;;;;11.00;6.95;;;;;;;10.00;88.08;97859.41;5043607;28;20140;-56
2022/10/16 06:28:43;;;;;;;10.85;7.13;;;;;;;9.92;88.66;97849.28;5044718;28;20158;-57
2022/10/16 06:31:11;;;;;;;15.68;7.95;;;;;;;10.31;86.14;97840.25;5043458;28;20053;-56
2022/10/16 06:33:39;;;;;;;14.68;8.18;;;;;;;10.61;85.18;97854.59;5044929;28;20080;-57
2022/10/16 06:36:11;;;;;;;18.23;10.15;;;;;;;10.98;83.65;97896.88;5044913;28;20103;-57
2022/10/16 06:38:39;;;;;;;21.30;11.88;;;;;;;11.23;83.10;97890.88;5045027;28;20083;-60
2022/10/16 06:41:07;;;;;;;25.77;13.63;;;;;;;11.40;82.40;97903.59;5044736;28;20589;-58
2022/10/16 06:43:36;;;;;;;20.92;11.65;;;;;;;11.24;81.23;97877.81;5046421;28;20573;-57
2022/10/16 06:46:07;;;;;;;19.58;11.57;;;;;;;11.71;79.80;97900.94;5044582;28;20053;-57
2022/10/16 06:48:34;;;;;;;15.90;10.35;;;;;;;11.82;80.15;97905.56;5045748;28;20107;-57
2022/10/16 06:51:11;;;;;;;22.25;11.52;;;;;;;12.00;79.41;97964.34;5064764;28;20145;-56
2022/10/16 06:53:40;;;;;;;19.60;10.35;;;;;;;12.05;79.49;97908.53;5064737;28;20076;-57
2022/10/16 06:56:30;;;;;;;54.00;17.75;;;;;;;12.09;78.82;97892.78;5064818;28;20055;-57
2022/10/16 06:58:58;;;;;;;55.00;17.27;;;;;;;12.46;77.45;97912.72;5064829;28;20495;-60
2022/10/16 07:01:25;;;;;;;32.42;13.25;;;;;;;12.31;76.92;97850.47;5063145;28;20076;-58
2022/10/16 07:03:52;;;;;;;18.30;10.27;;;;;;;12.86;76.62;97914.06;5064249;28;20114;-56
2022/10/16 07:06:23;;;;;;;21.23;12.77;;;;;;;12.56;76.06;97854.59;5064196;28;20052;-58
2022/10/16 07:08:50;;;;;;;21.45;10.85;;;;;;;12.98;75.93;97874.16;5062900;28;20084;-58
2022/10/16 07:11:19;;;;;;;21.35;12.00;;;;;;;12.90;74.96;97823.16;5064121;28;20048;-57
2022/10/16 07:13:47;;;;;;;15.82;9.73;;;;;;;13.55;74.18;97904.78;5064581;28;20056;-58
2022/10/16 07:16:23;;;;;;;17.77;9.63;;;;;;;12.87;73.22;97795.28;5063142;28;20131;-58
2022/10/16 07:18:51;;;;;;;13.63;9.00;;;;;;;13.68;72.86;97881.97;5062873;28;20048;-60
2022/10/16 07:21:22;;;;;;;17.13;9.30;;;;;;;14.05;72.60;97912.06;5062798;28;20055;-57
2022/10/16 07:23:54;;;;;;;15.80;8.40;;;;;;;14.27;71.79;97920.44;5063853;28;20110;-57
2022/10/16 07:26:22;;;;;;;13.27;8.00;;;;;;;14.47;71.08;97923.94;5064119;28;20052;-58
2022/10/16 07:28:48;;;;;;;12.27;8.05;;;;;;;14.11;71.11;97829.78;5064115;28;20147;-59
2022/10/16 07:31:17;;;;;;;12.73;6.82;;;;;;;14.84;70.15;97905.38;5062947;28;20125;-61
2022/10/16 07:33:45;;;;;;;9.73;6.60;;;;;;;14.99;66.95;97908.00;5063220;28;20545;-57
2022/10/16 07:36:12;;;;;;;14.93;7.38;;;;;;;15.13;66.95;97896.19;5062884;28;20550;-57
2022/10/16 07:38:42;;;;;;;12.23;6.95;;;;;;;15.32;64.03;97896.03;5064320;28;20071;-59
2022/10/16 07:41:12;;;;;;;9.85;6.22;;;;;;;15.42;62.17;97897.38;5062897;28;20558;-59
2022/10/16 07:43:39;;;;;;;9.23;6.82;;;;;;;15.05;62.03;97816.38;5067617;28;20060;-58
2022/10/16 07:46:06;;;;;;;16.30;7.35;;;;;;;15.74;60.41;97915.31;5068464;28;20132;-56
2022/10/16 07:48:34;;;;;;;8.32;5.60;;;;;;;15.97;59.11;97908.38;5065785;28;20131;-56
2022/10/16 07:51:05;;;;;;;15.23;9.32;;;;;;;15.37;57.28;97884.53;5047895;28;20052;-56
2022/10/16 07:53:33;;;;;;;12.20;7.28;;;;;;;15.73;56.76;97903.34;5047807;28;20122;-56
2022/10/16 07:56:02;;;;;;;12.07;7.60;;;;;;;15.56;55.93;97909.53;5047746;28;20577;-58
2022/10/16 07:58:29;;;;;;;14.55;9.00;;;;;;;15.61;57.21;97891.63;5046702;28;20146;-56
2022/10/16 08:00:56;;;;;;;22.58;11.63;;;;;;;15.68;55.28;97889.72;5047732;28;20164;-57
2022/10/16 08:03:24;;;;;;;16.75;10.07;;;;;;;15.48;54.91;97863.16;5047832;28;20049;-56
2022/10/16 08:05:51;;;;;;;21.08;10.80;;;;;;;15.89;54.43;97901.09;5046356;28;20155;-58
2022/10/16 08:08:18;;;;;;;19.67;11.65;;;;;;;16.03;53.45;97901.25;5045905;28;20048;-57
2022/10/16 08:10:45;;;;;;;36.50;11.70;;;;;;;15.65;53.50;97900.88;5049490;28;20085;-59
2022/10/16 08:13:14;;;;;;;17.70;10.13;;;;;;;16.03;53.94;97890.06;5047502;28;20388;-58
2022/10/16 08:15:43;;;;;;;14.88;10.10;;;;;;;16.07;52.72;97893.72;5047298;28;20045;-58
2022/10/16 08:18:10;;;;;;;61.85;22.33;;;;;;;15.60;52.07;97832.16;5047918;28;20052;-57
2022/10/16 08:20:38;;;;;;;33.47;16.60;;;;;;;16.04;52.80;97886.09;5047279;28;20595;-57
2022/10/16 08:23:05;;;;;;;22.02;13.38;;;;;;;16.13;51.35;97888.56;5046228;28;20049;-57
2022/10/16 08:25:35;;;;;;;18.08;10.68;;;;;;;15.93;51.22;97899.13;5046926;28;20592;-56
2022/10/16 08:28:07;;;;;;;20.60;11.05;;;;;;;15.92;50.78;97877.97;5046176;28;20148;-57
2022/10/16 08:30:34;;;;;;;15.27;10.32;;;;;;;15.97;50.96;97852.47;5047172;28;20060;-57
2022/10/16 08:33:02;;;;;;;16.63;10.57;;;;;;;16.53;49.90;97897.69;5047376;28;20148;-57
2022/10/16 08:35:28;;;;;;;12.00;7.72;;;;;;;16.02;49.47;97894.06;5046019;28;20500;-59
2022/10/16 08:37:55;;;;;;;15.13;9.18;;;;;;;15.69;50.59;97907.28;5047386;28;20091;-57
2022/10/16 08:40:28;;;;;;;13.52;8.70;;;;;;;13.93;52.07;97647.63;5047088;28;20588;-58
2022/10/16 08:43:24;;;;;;;11.93;8.55;;;;;;;15.76;51.63;97891.38;5045274;28;20111;-57
2022/10/16 08:46:08;;;;;;;14.05;9.77;;;;;;;16.13;51.35;97889.38;5027253;28;20149;-57
2022/10/16 08:48:51;;;;;;;16.70;8.88;;;;;;;16.33;50.68;97882.34;5029684;28;20107;-59
2022/10/16 08:51:28;;;;;;;13.27;8.70;;;;;;;16.40;49.43;97854.44;5027001;28;20185;-56
2022/10/16 08:54:01;;;;;;;13.63;8.25;;;;;;;16.61;48.62;97876.97;5026157;28;20419;-59
2022/10/16 08:56:28;;;;;;;13.38;8.65;;;;;;;16.80;48.71;97891.91;5025717;28;20181;-57
2022/10/16 08:58:57;;;;;;;17.92;8.63;;;;;;;15.85;49.05;97749.41;5026510;28;20050;-57
2022/10/16 09:01:44;;;;;;;15.10;8.00;;;;;;;16.82;48.80;97893.09;5026698;28;20059;-57
2022/10/16 09:04:40;;;;;;;13.47;6.63;;;;;;;16.60;47.73;97897.75;5025217;28;20049;-57
2022/10/16 09:07:21;;;;;;;14.25;7.72;;;;;;;16.53;48.75;97892.09;5026495;28;20477;-58
2022/10/16 09:10:18;;;;;;;13.00;8.63;;;;;;;16.34;49.10;97906.31;5026475;28;20144;-57
2022/10/16 09:12:53;;;;;;;16.20;8.43;;;;;;;16.60;48.32;97900.56;5026130;28;20061;-57
2022/10/16 09:15:41;;;;;;;14.65;9.43;;;;;;;17.08;47.79;97894.84;5026559;28;20049;-56
2022/10/16 09:18:37;;;;;;;12.82;8.40;;;;;;;16.98;47.39;97874.00;5026672;28;20092;-57
2022/10/16 09:21:27;;;;;;;16.75;9.15;;;;;;;17.30;46.97;97882.56;5026152;28;20159;-57
2022/10/16 09:23:59;;;;;;;10.68;6.85;;;;;;;17.31;46.20;97847.75;5025078;28;20136;-57
2022/10/16 09:26:25;;;;;;;12.00;7.22;;;;;;;17.69;45.47;97875.91;5026215;28;20136;-58
2022/10/16 09:28:53;;;;;;;14.25;8.18;;;;;;;17.73;45.78;97873.13;5026167;28;20075;-56
2022/10/16 09:31:22;;;;;;;10.90;6.78;;;;;;;16.96;45.89;97884.00;5024625;28;20053;-57
2022/10/16 09:33:59;;;;;;;12.77;6.75;;;;;;;16.80;45.99;97880.69;5026691;28;20119;-58
2022/10/16 09:36:28;;;;;;;14.52;8.20;;;;;;;17.11;45.78;97885.66;5026490;28;20050;-58
2022/10/16 09:39:07;;;;;;;17.10;7.47;;;;;;;17.51;45.27;97885.47;5026455;28;20122;-57
2022/10/16 09:41:39;;;;;;;12.60;7.30;;;;;;;17.47;45.12;97823.00;5026663;28;20061;-57
2022/10/16 09:44:26;;;;;;;11.27;6.47;;;;;;;17.46;44.62;97776.59;5026386;28;20053;-57
2022/10/16 09:47:17;;;;;;;12.80;7.47;;;;;;;18.36;43.27;97876.00;5026056;28;20516;-57
2022/10/16 09:49:53;;;;;;;12.57;6.00;;;;;;;18.03;42.93;97829.53;5025678;28;20085;-58
2022/10/16 09:52:22;;;;;;;11.82;6.15;;;;;;;17.68;44.35;97870.69;5024548;28;20136;-58
2022/10/16 09:54:50;;;;;;;11.63;6.05;;;;;;;18.01;43.87;97842.31;5024633;28;20148;-59
2022/10/16 09:57:16;;;;;;;9.15;6.57;;;;;;;18.00;42.89;97826.72;5025557;28;20496;-57
2022/10/16 09:59:57;;;;;;;11.10;6.93;;;;;;;18.39;43.53;97858.38;5025769;28;20128;-58
2022/10/16 10:02:37;;;;;;;8.75;6.28;;;;;;;18.66;42.98;97864.38;5025711;28;20119;-58
2022/10/16 10:05:16;;;;;;;9.35;6.15;;;;;;;18.91;42.44;97851.88;5024399;28;20064;-57
2022/10/16 10:07:45;;;;;;;11.48;5.90;;;;;;;19.09;42.10;97852.66;5025496;28;20081;-56
2022/10/16 10:10:27;;;;;;;9.52;6.13;;;;;;;19.33;41.87;97840.50;5025174;28;20483;-56
2022/10/16 10:12:55;;;;;;;9.25;5.90;;;;;;;19.40;41.48;97846.13;5025291;28;20093;-59
2022/10/16 10:15:23;;;;;;;6.43;5.10;;;;;;;19.60;40.45;97835.16;5023909;28;20092;-57
2022/10/16 10:17:52;;;;;;;9.98;5.88;;;;;;;19.60;39.90;97804.22;5024953;28;20118;-60
2022/10/16 10:20:32;;;;;;;9.10;5.43;;;;;;;19.94;39.68;97830.53;5023645;28;20435;-58
2022/10/16 10:22:59;;;;;;;9.98;5.50;;;;;;;19.50;39.82;97839.66;5025343;28;20065;-57
2022/10/16 10:25:39;;;;;;;12.38;5.70;;;;;;;19.25;39.57;97782.72;5024746;28;20084;-60
2022/10/16 10:28:14;;;;;;;9.68;5.63;;;;;;;19.54;39.48;97826.38;5024023;28;20690;-57
2022/10/16 10:30:48;;;;;;;13.93;7.63;;;;;;;19.24;39.98;97792.38;5024888;28;20631;-58
2022/10/16 10:33:27;;;;;;;10.93;7.20;;;;;;;19.12;39.47;97795.66;5023665;28;20180;-57
2022/10/16 10:36:02;;;;;;;7.70;6.00;;;;;;;18.19;40.80;97749.78;5024550;28;20083;-58
2022/10/16 10:38:42;;;;;;;12.63;5.80;;;;;;;18.66;41.40;97828.69;5024181;28;20145;-60
2022/10/16 10:41:39;;;;;;;10.93;5.40;;;;;;;16.87;39.76;97452.56;5025282;28;20150;-57
2022/10/16 10:44:32;;;;;;;11.55;5.55;;;;;;;19.16;40.38;97818.88;5024737;28;20140;-58
2022/10/16 10:47:27;;;;;;;11.93;6.75;;;;;;;19.39;40.00;97810.00;5023682;28;20084;-59
2022/10/16 10:50:18;;;;;;;10.50;6.28;;;;;;;19.66;39.29;97813.03;5024813;28;20144;-58
2022/10/16 10:52:53;;;;;;;13.15;6.00;;;;;;;19.24;40.37;97819.66;5024727;28;20080;-58
2022/10/16 10:55:47;;;;;;;7.53;5.20;;;;;;;19.60;39.27;97815.47;5023196;28;20547;-59
2022/10/16 10:58:29;;;;;;;6.90;5.45;;;;;;;19.75;37.92;97813.38;5024607;28;20520;-59
2022/10/16 11:01:11;;;;;;;7.43;5.45;;;;;;;19.80;38.46;97807.31;5024750;28;20053;-58
2022/10/16 11:03:57;;;;;;;8.02;5.72;;;;;;;19.66;38.16;97808.22;5024830;28;20128;-58
2022/10/16 11:06:40;;;;;;;10.13;5.53;;;;;;;19.20;38.14;97808.47;5022983;28;20444;-59
2022/10/16 11:09:09;;;;;;;10.02;5.20;;;;;;;18.93;38.74;97801.75;5023535;28;20136;-57
2022/10/16 11:11:49;;;;;;;11.93;6.10;;;;;;;18.06;39.56;97696.13;5024465;28;20124;-58
2022/10/16 11:14:25;;;;;;;10.63;5.47;;;;;;;18.97;39.61;97760.41;5024917;28;20057;-58
2022/10/16 11:16:55;;;;;;;11.52;8.02;;;;;;;19.39;39.24;97805.16;5024210;28;20053;-57
2022/10/16 11:19:44;;;;;;;16.27;7.22;;;;;;;19.32;39.70;97816.44;5022811;28;20089;-58
2022/10/16 11:22:41;;;;;;;13.43;6.60;;;;;;;18.84;41.22;97809.78;5023747;28;20159;-58
2022/10/16 11:25:19;;;;;;;14.02;7.80;;;;;;;19.18;40.58;97805.25;5024389;28;20092;-57
2022/10/16 11:28:03;;;;;;;11.90;6.53;;;;;;;19.31;39.84;97798.00;5024127;28;20148;-59
2022/10/16 11:30:34;;;;;;;13.73;7.82;;;;;;;19.47;39.65;97789.84;5024246;28;20089;-57
2022/10/16 11:33:18;;;;;;;10.40;6.95;;;;;;;18.89;39.48;97685.81;5022644;28;20320;-58
2022/10/16 11:36:00;;;;;;;9.13;6.25;;;;;;;19.24;39.40;97781.13;5022631;28;20608;-59
2022/10/16 11:38:29;;;;;;;11.23;7.10;;;;;;;19.27;39.23;97785.13;5024718;28;20140;-59
2022/10/16 11:41:02;;;;;;;10.25;6.35;;;;;;;19.69;38.47;97786.91;5022657;28;20132;-59
2022/10/16 11:43:37;;;;;;;12.73;6.18;;;;;;;19.89;37.83;97774.72;5024109;28;20064;-58
2022/10/16 11:46:18;;;;;;;10.70;6.22;;;;;;;19.27;37.87;97718.50;5022349;28;20081;-56